createdAt,value
2016-05-25T00:00:08.547Z,12.35
2016-05-25T00:01:08.409Z,12.28
2016-05-25T00:02:08.255Z,12.15
2016-05-25T00:03:08.539Z,12.29
2016-05-25T00:04:08.574Z,12.27
2016-05-25T00:05:08.545Z,12.24
2016-05-25T00:06:08.548Z,12.22
2016-05-25T00:07:08.550Z,12.17
2016-05-25T00:08:08.553Z,12.24
2016-05-25T00:09:08.541Z,12.13
2016-05-25T00:10:08.558Z,12.21
2016-05-25T00:11:08.546Z,12.18
2016-05-25T00:12:08.563Z,12.15
2016-05-25T00:13:08.551Z,12.17
2016-05-25T00:14:08.569Z,12.22
2016-05-25T00:15:08.556Z,12.24
2016-05-25T00:16:09.091Z,12.22
2016-05-25T00:17:08.609Z,12.25
2016-05-25T00:18:08.565Z,12.15
2016-05-25T00:19:08.567Z,12.39
2016-05-25T00:20:08.570Z,12.37
2016-05-25T00:21:08.557Z,12.37
2016-05-25T00:22:08.575Z,12.37
2016-05-25T00:23:08.547Z,12.28
2016-05-25T00:24:08.565Z,12.28
2016-05-25T00:25:08.553Z,12.28
2016-05-25T00:26:08.555Z,12.32
2016-05-25T00:27:08.558Z,12.4
2016-05-25T00:28:08.561Z,12.4
2016-05-25T00:29:08.564Z,12.36
2016-05-25T00:30:08.566Z,12.39
2016-05-25T00:31:08.725Z,12.37
2016-05-25T00:32:08.242Z,12.36
2016-05-25T00:33:08.558Z,12.4
2016-05-25T00:34:08.561Z,12.39
2016-05-25T00:35:08.563Z,12.43
2016-05-25T00:36:08.566Z,12.39
2016-05-25T00:37:08.537Z,12.36
2016-05-25T00:38:08.556Z,12.24
2016-05-25T00:39:08.559Z,12.36
2016-05-25T00:40:08.561Z,12.32
2016-05-25T00:41:08.564Z,12.22
2016-05-25T00:42:08.566Z,12.29
2016-05-25T00:43:08.397Z,12.35
2016-05-25T00:44:08.571Z,12.36
2016-05-25T00:45:08.574Z,12.36
2016-05-25T00:46:08.687Z,12.45
2016-05-25T00:47:08.408Z,12.37
2016-05-25T00:48:08.583Z,12.4
2016-05-25T00:49:08.570Z,12.36
2016-05-25T00:50:08.541Z,12.37
2016-05-25T00:51:08.575Z,12.39
2016-05-25T00:52:08.546Z,12.37
2016-05-25T00:53:08.581Z,12.37
2016-05-25T00:54:08.551Z,12.4
2016-05-25T00:55:08.555Z,12.35
2016-05-25T00:56:08.557Z,12.24
2016-05-25T00:57:08.575Z,12.22
2016-05-25T00:58:08.547Z,12.39
2016-05-25T00:59:08.581Z,12.39
2016-05-25T01:00:08.397Z,12.24
2016-05-25T01:01:08.633Z,12.35
2016-05-25T01:02:08.558Z,12.29
2016-05-25T01:03:08.608Z,12.36
2016-05-25T01:04:08.563Z,12.36
2016-05-25T01:05:08.550Z,12.25
2016-05-25T01:06:08.552Z,12.35
2016-05-25T01:07:08.430Z,12.36
2016-05-25T01:08:08.558Z,12.29
2016-05-25T01:09:08.546Z,12.4
2016-05-25T01:10:08.392Z,12.31
2016-05-25T01:11:08.613Z,12.37
2016-05-25T01:12:08.397Z,12.28
2016-05-25T01:13:08.556Z,12.36
2016-05-25T01:14:08.402Z,12.36
2016-05-25T01:15:08.546Z,12.36
2016-05-25T01:16:08.610Z,12.29
2016-05-25T01:17:08.567Z,12.27
2016-05-25T01:18:08.554Z,12.28
2016-05-25T01:19:08.557Z,12.35
2016-05-25T01:20:08.559Z,12.32
2016-05-25T01:21:08.562Z,12.36
2016-05-25T01:22:08.596Z,12.39
2016-05-25T01:23:08.551Z,12.37
2016-05-25T01:24:08.570Z,12.36
2016-05-25T01:25:08.557Z,12.35
2016-05-25T01:26:08.559Z,12.37
2016-05-25T01:27:08.563Z,12.24
2016-05-25T01:28:08.409Z,12.35
2016-05-25T01:29:08.553Z,12.36
2016-05-25T01:30:08.398Z,12.36
2016-05-25T01:31:08.558Z,12.31
2016-05-25T01:32:08.404Z,12.37
2016-05-25T01:33:08.563Z,12.35
2016-05-25T01:34:08.409Z,12.37
2016-05-25T01:35:08.553Z,12.37
2016-05-25T01:36:08.555Z,12.36
2016-05-25T01:37:08.558Z,12.25
2016-05-25T01:38:08.560Z,12.35
2016-05-25T01:39:08.563Z,12.29
2016-05-25T01:40:08.551Z,12.37
2016-05-25T01:41:08.553Z,12.39
2016-05-25T01:42:08.572Z,12.37
2016-05-25T01:43:08.558Z,12.35
2016-05-25T01:44:08.561Z,12.36
2016-05-25T01:45:08.564Z,12.27
2016-05-25T01:46:08.566Z,12.22
2016-05-25T01:47:08.554Z,12.22
2016-05-25T01:48:08.557Z,12.25
2016-05-25T01:49:08.560Z,12.35
2016-05-25T01:50:08.562Z,12.29
2016-05-25T01:51:08.579Z,12.39
2016-05-25T01:52:08.583Z,12.36
2016-05-25T01:53:08.414Z,12.39
2016-05-25T01:54:08.557Z,12.39
2016-05-25T01:55:08.403Z,12.36
2016-05-25T01:56:08.562Z,12.37
2016-05-25T01:57:08.409Z,12.36
2016-05-25T01:58:08.567Z,12.36
2016-05-25T01:59:08.570Z,12.29
2016-05-25T02:00:08.558Z,12.35
2016-05-25T02:01:08.920Z,12.37
2016-05-25T02:02:08.735Z,12.37
2016-05-25T02:03:08.581Z,12.31
2016-05-25T02:04:08.553Z,12.5
2016-05-25T02:05:08.571Z,12.27
2016-05-25T02:06:08.417Z,12.35
2016-05-25T02:07:08.561Z,12.4
2016-05-25T02:08:08.422Z,12.25
2016-05-25T02:09:08.410Z,12.32
2016-05-25T02:10:08.600Z,12.28
2016-05-25T02:11:08.572Z,12.32
2016-05-25T02:12:08.419Z,12.22
2016-05-25T02:13:08.561Z,12.22
2016-05-25T02:14:08.408Z,12.28
2016-05-25T02:15:08.566Z,12.37
2016-05-25T02:16:08.569Z,12.35
2016-05-25T02:17:08.899Z,12.29
2016-05-25T02:18:08.559Z,12.27
2016-05-25T02:19:08.577Z,12.45
2016-05-25T02:20:08.580Z,12.4
2016-05-25T02:21:08.426Z,12.42
2016-05-25T02:22:08.570Z,12.5
2016-05-25T02:23:08.588Z,12.5
2016-05-25T02:24:08.560Z,12.35
2016-05-25T02:25:08.578Z,12.45
2016-05-25T02:26:08.581Z,12.37
2016-05-25T02:27:08.411Z,12.39
2016-05-25T02:28:08.414Z,12.4
2016-05-25T02:29:08.572Z,12.4
2016-05-25T02:30:08.575Z,12.43
2016-05-25T02:31:08.422Z,12.43
2016-05-25T02:32:09.050Z,12.37
2016-05-25T02:33:08.584Z,12.36
2016-05-25T02:34:08.571Z,12.4
2016-05-25T02:35:08.573Z,12.42
2016-05-25T02:36:08.576Z,12.31
2016-05-25T02:37:08.578Z,12.32
2016-05-25T02:38:08.581Z,12.39
2016-05-25T02:39:08.583Z,12.37
2016-05-25T02:40:08.587Z,12.37
2016-05-25T02:41:08.449Z,12.4
2016-05-25T02:42:08.436Z,12.43
2016-05-25T02:43:08.439Z,12.4
2016-05-25T02:44:08.566Z,12.4
2016-05-25T02:45:08.585Z,12.39
2016-05-25T02:46:08.588Z,12.4
2016-05-25T02:47:08.262Z,12.45
2016-05-25T02:48:08.421Z,12.43
2016-05-25T02:49:08.579Z,12.47
2016-05-25T02:50:08.567Z,12.4
2016-05-25T02:51:08.586Z,12.47
2016-05-25T02:52:08.572Z,12.45
2016-05-25T02:53:08.576Z,12.37
2016-05-25T02:54:08.421Z,12.37
2016-05-25T02:55:08.424Z,12.36
2016-05-25T02:56:08.568Z,12.35
2016-05-25T02:57:08.570Z,12.36
2016-05-25T02:58:08.573Z,12.25
2016-05-25T02:59:08.575Z,12.28
2016-05-25T03:00:08.594Z,12.4
2016-05-25T03:01:08.581Z,12.27
2016-05-25T03:02:08.428Z,12.36
2016-05-25T03:03:08.617Z,12.27
2016-05-25T03:04:08.589Z,12.28
2016-05-25T03:05:08.591Z,12.36
2016-05-25T03:06:09.314Z,12.28
2016-05-25T03:07:08.425Z,12.29
2016-05-25T03:08:08.569Z,12.25
2016-05-25T03:09:08.571Z,12.29
2016-05-25T03:10:08.589Z,12.35
2016-05-25T03:11:08.576Z,12.31
2016-05-25T03:12:08.580Z,12.31
2016-05-25T03:13:08.582Z,12.28
2016-05-25T03:14:08.585Z,12.37
2016-05-25T03:15:08.571Z,12.36
2016-05-25T03:16:08.449Z,12.32
2016-05-25T03:17:08.858Z,12.37
2016-05-25T03:18:08.580Z,12.32
2016-05-25T03:19:08.426Z,12.39
2016-05-25T03:20:08.585Z,12.29
2016-05-25T03:21:08.432Z,12.36
2016-05-25T03:22:08.575Z,12.36
2016-05-25T03:23:08.421Z,12.36
2016-05-25T03:24:08.580Z,12.35
2016-05-25T03:25:08.583Z,12.35
2016-05-25T03:26:08.571Z,12.37
2016-05-25T03:27:08.620Z,12.4
2016-05-25T03:28:08.576Z,12.35
2016-05-25T03:29:08.750Z,12.37
2016-05-25T03:30:08.440Z,12.32
2016-05-25T03:31:08.568Z,12.29
2016-05-25T03:32:08.586Z,12.32
2016-05-25T03:33:08.573Z,12.28
2016-05-25T03:34:08.264Z,12.37
2016-05-25T03:35:08.563Z,12.39
2016-05-25T03:36:08.581Z,12.36
2016-05-25T03:37:08.569Z,12.37
2016-05-25T03:38:08.414Z,12.4
2016-05-25T03:39:08.574Z,12.39
2016-05-25T03:40:08.592Z,12.36
2016-05-25T03:41:08.579Z,12.35
2016-05-25T03:42:08.425Z,12.31
2016-05-25T03:43:08.428Z,12.32
2016-05-25T03:44:08.587Z,12.32
2016-05-25T03:45:08.574Z,12.36
2016-05-25T03:46:08.593Z,12.32
2016-05-25T03:47:08.846Z,12.39
2016-05-25T03:48:08.599Z,12.27
2016-05-25T03:49:08.569Z,12.4
2016-05-25T03:50:08.588Z,12.37
2016-05-25T03:51:08.574Z,12.32
2016-05-25T03:52:08.577Z,12.32
2016-05-25T03:53:08.580Z,12.29
2016-05-25T03:54:08.598Z,12.28
2016-05-25T03:55:08.586Z,12.27
2016-05-25T03:56:08.635Z,12.37
2016-05-25T03:57:08.576Z,12.39
2016-05-25T03:58:08.438Z,12.35
2016-05-25T03:59:08.582Z,12.35
2016-05-25T04:00:08.584Z,12.31
2016-05-25T04:01:08.570Z,12.42
2016-05-25T04:02:08.871Z,12.31
2016-05-25T04:03:08.435Z,12.28
2016-05-25T04:04:08.579Z,12.31
2016-05-25T04:05:08.582Z,12.22
2016-05-25T04:06:08.584Z,12.25
2016-05-25T04:07:08.586Z,12.22
2016-05-25T04:08:08.606Z,12.22
2016-05-25T04:09:08.592Z,12.24
2016-05-25T04:10:08.579Z,12.25
2016-05-25T04:11:08.613Z,12.27
2016-05-25T04:12:08.647Z,12.36
2016-05-25T04:13:08.428Z,12.31
2016-05-25T04:14:08.416Z,12.39
2016-05-25T04:15:08.590Z,12.39
2016-05-25T04:16:08.845Z,12.32
2016-05-25T04:17:09.676Z,12.36
2016-05-25T04:18:08.582Z,12.37
2016-05-25T04:19:08.585Z,12.36
2016-05-25T04:20:08.595Z,12.36
2016-05-25T04:21:08.482Z,12.37
2016-05-25T04:22:08.664Z,12.37
2016-05-25T04:23:08.675Z,12.46
2016-05-25T04:24:08.717Z,12.45
2016-05-25T04:25:08.728Z,12.39
2016-05-25T04:26:08.709Z,12.47
2016-05-25T04:27:08.735Z,12.47
2016-05-25T04:28:08.746Z,12.5
2016-05-25T04:29:08.742Z,12.49
2016-05-25T04:30:10.785Z,12.53
2016-05-25T04:31:08.957Z,12.47
2016-05-25T04:32:09.119Z,12.39
2016-05-25T04:33:08.765Z,12.36
2016-05-25T04:34:08.755Z,12.37
2016-05-25T04:35:10.590Z,12.36
2016-05-25T04:36:08.762Z,12.4
2016-05-25T04:37:08.767Z,12.37
2016-05-25T04:38:08.770Z,12.4
2016-05-25T04:39:08.759Z,12.4
2016-05-25T04:40:11.186Z,12.42
2016-05-25T04:41:08.780Z,12.39
2016-05-25T04:42:08.768Z,12.35
2016-05-25T04:43:08.771Z,12.4
2016-05-25T04:44:08.773Z,12.45
2016-05-25T04:45:10.436Z,12.32
2016-05-25T04:46:08.764Z,12.28
2016-05-25T04:47:09.439Z,12.31
2016-05-25T04:48:08.770Z,12.35
2016-05-25T04:49:08.803Z,12.28
2016-05-25T04:50:08.603Z,12.31
2016-05-25T04:51:08.778Z,12.29
2016-05-25T04:52:08.780Z,12.42
2016-05-25T04:53:08.767Z,12.31
2016-05-25T04:54:08.769Z,12.25
2016-05-25T04:55:08.773Z,12.32
2016-05-25T04:56:08.634Z,12.27
2016-05-25T04:57:08.777Z,12.31
2016-05-25T04:58:08.764Z,12.39
2016-05-25T04:59:08.627Z,12.39
2016-05-25T05:00:08.614Z,12.37
2016-05-25T05:01:08.789Z,12.39
2016-05-25T05:02:08.463Z,12.43
2016-05-25T05:03:08.810Z,12.45
2016-05-25T05:04:08.781Z,12.53
2016-05-25T05:05:08.768Z,12.42
2016-05-25T05:06:08.771Z,12.46
2016-05-25T05:07:08.601Z,12.47
2016-05-25T05:08:08.776Z,12.47
2016-05-25T05:09:08.623Z,12.46
2016-05-25T05:10:08.781Z,12.54
2016-05-25T05:11:08.768Z,12.46
2016-05-25T05:12:08.771Z,12.47
2016-05-25T05:13:08.774Z,12.49
2016-05-25T05:14:08.620Z,12.47
2016-05-25T05:15:08.779Z,12.54
2016-05-25T05:16:08.767Z,12.49
2016-05-25T05:17:08.801Z,12.55
2016-05-25T05:18:08.756Z,12.5
2016-05-25T05:19:08.759Z,12.62
2016-05-25T05:20:08.605Z,12.57
2016-05-25T05:21:08.796Z,12.57
2016-05-25T05:22:08.611Z,12.58
2016-05-25T05:23:08.754Z,12.55
2016-05-25T05:24:08.803Z,12.57
2016-05-25T05:25:08.759Z,12.62
2016-05-25T05:26:08.762Z,12.68
2016-05-25T05:27:08.765Z,12.61
2016-05-25T05:28:08.611Z,12.7
2016-05-25T05:29:08.786Z,12.73
2016-05-25T05:30:08.757Z,12.7
2016-05-25T05:31:08.838Z,12.7
2016-05-25T05:32:08.622Z,12.67
2016-05-25T05:33:08.766Z,12.79
2016-05-25T05:34:08.752Z,12.68
2016-05-25T05:35:08.771Z,12.79
2016-05-25T05:36:08.774Z,12.82
2016-05-25T05:37:08.761Z,12.82
2016-05-25T05:38:08.779Z,12.83
2016-05-25T05:39:08.766Z,12.8
2016-05-25T05:40:08.768Z,12.85
2016-05-25T05:41:08.787Z,12.8
2016-05-25T05:42:08.774Z,12.78
2016-05-25T05:43:08.760Z,12.83
2016-05-25T05:44:08.763Z,12.91
2016-05-25T05:45:08.765Z,12.93
2016-05-25T05:46:10.879Z,12.79
2016-05-25T05:47:08.787Z,12.94
2016-05-25T05:48:08.790Z,13.01
2016-05-25T05:49:08.777Z,13.05
2016-05-25T05:50:08.608Z,13.01
2016-05-25T05:51:09.501Z,13
2016-05-25T05:52:08.770Z,12.98
2016-05-25T05:53:08.616Z,13.13
2016-05-25T05:54:08.775Z,13.05
2016-05-25T05:55:08.636Z,12.98
2016-05-25T05:56:10.140Z,12.97
2016-05-25T05:57:11.767Z,12.98
2016-05-25T05:58:08.786Z,12.97
2016-05-25T05:59:08.773Z,13.03
2016-05-25T06:00:08.775Z,12.98
2016-05-25T06:01:10.450Z,13.04
2016-05-25T06:02:08.765Z,12.97
2016-05-25T06:03:08.799Z,12.98
2016-05-25T06:04:08.630Z,13
2016-05-25T06:05:08.788Z,13.01
2016-05-25T06:06:08.807Z,13.11
2016-05-25T06:07:08.638Z,13.12
2016-05-25T06:08:08.624Z,13.25
2016-05-25T06:09:08.628Z,13.2
2016-05-25T06:10:08.787Z,13.22
2016-05-25T06:11:08.805Z,13.3
2016-05-25T06:12:08.793Z,13.22
2016-05-25T06:13:08.795Z,13.35
2016-05-25T06:14:08.782Z,13.28
2016-05-25T06:15:08.784Z,13.25
2016-05-25T06:16:08.881Z,13.2
2016-05-25T06:17:09.102Z,13.19
2016-05-25T06:18:08.792Z,13.04
2016-05-25T06:19:08.796Z,13.11
2016-05-25T06:20:08.798Z,13.09
2016-05-25T06:21:08.800Z,13.03
2016-05-25T06:22:08.788Z,13.12
2016-05-25T06:23:08.634Z,13.15
2016-05-25T06:24:08.793Z,13.2
2016-05-25T06:25:08.640Z,13.16
2016-05-25T06:26:08.798Z,13.23
2016-05-25T06:27:08.801Z,13.28
2016-05-25T06:28:08.788Z,13.35
2016-05-25T06:29:08.791Z,13.33
2016-05-25T06:30:08.793Z,13.46
2016-05-25T06:31:09.374Z,13.37
2016-05-25T06:32:09.252Z,13.44
2016-05-25T06:33:08.802Z,13.46
2016-05-25T06:34:08.789Z,13.59
2016-05-25T06:35:08.792Z,13.57
2016-05-25T06:36:08.653Z,13.6
2016-05-25T06:37:08.797Z,13.59
2016-05-25T06:38:08.800Z,13.57
2016-05-25T06:39:08.802Z,13.54
2016-05-25T06:40:08.805Z,13.7
2016-05-25T06:41:08.651Z,13.7
2016-05-25T06:42:08.639Z,13.68
2016-05-25T06:43:08.813Z,13.67
2016-05-25T06:44:08.816Z,13.65
2016-05-25T06:45:08.834Z,13.72
2016-05-25T06:46:08.805Z,13.7
2016-05-25T06:47:08.995Z,13.81
2016-05-25T06:48:08.810Z,13.78
2016-05-25T06:49:08.813Z,13.86
2016-05-25T06:50:08.659Z,13.86
2016-05-25T06:51:08.819Z,13.85
2016-05-25T06:52:08.806Z,13.83
2016-05-25T06:53:08.823Z,13.83
2016-05-25T06:54:08.812Z,13.83
2016-05-25T06:55:08.658Z,13.85
2016-05-25T06:56:08.817Z,13.83
2016-05-25T06:57:08.664Z,13.77
2016-05-25T06:58:08.666Z,13.81
2016-05-25T06:59:08.825Z,13.78
2016-05-25T07:00:08.811Z,13.78
2016-05-25T07:01:08.845Z,13.89
2016-05-25T07:02:09.270Z,13.83
2016-05-25T07:03:08.820Z,13.87
2016-05-25T07:04:08.838Z,13.81
2016-05-25T07:05:08.669Z,13.83
2016-05-25T07:06:08.844Z,13.85
2016-05-25T07:07:08.861Z,13.81
2016-05-25T07:08:08.833Z,13.9
2016-05-25T07:09:08.852Z,13.81
2016-05-25T07:10:08.838Z,13.89
2016-05-25T07:11:08.685Z,13.87
2016-05-25T07:12:08.844Z,13.79
2016-05-25T07:13:08.846Z,13.92
2016-05-25T07:14:08.865Z,13.83
2016-05-25T07:15:08.852Z,13.89
2016-05-25T07:16:08.682Z,13.89
2016-05-25T07:17:09.217Z,13.9
2016-05-25T07:18:08.860Z,13.99
2016-05-25T07:19:08.863Z,13.95
2016-05-25T07:20:08.865Z,14.07
2016-05-25T07:21:08.696Z,14.12
2016-05-25T07:22:08.856Z,14.12
2016-05-25T07:23:08.687Z,14.11
2016-05-25T07:24:08.876Z,14.11
2016-05-25T07:25:08.864Z,14.08
2016-05-25T07:26:08.725Z,14.11
2016-05-25T07:27:08.869Z,14.17
2016-05-25T07:28:08.872Z,14.07
2016-05-25T07:29:08.702Z,14.08
2016-05-25T07:30:08.705Z,14.04
2016-05-25T07:31:08.864Z,14.04
2016-05-25T07:32:08.898Z,14.08
2016-05-25T07:33:08.869Z,14.12
2016-05-25T07:34:08.888Z,13.97
2016-05-25T07:35:08.875Z,14.08
2016-05-25T07:36:08.721Z,13.95
2016-05-25T07:37:08.865Z,14.17
2016-05-25T07:38:08.711Z,14.04
2016-05-25T07:39:08.870Z,13.95
2016-05-25T07:40:08.872Z,13.95
2016-05-25T07:41:08.719Z,14.07
2016-05-25T07:42:08.877Z,13.96
2016-05-25T07:43:08.880Z,13.97
2016-05-25T07:44:08.868Z,13.95
2016-05-25T07:45:08.886Z,13.92
2016-05-25T07:46:08.716Z,14.05
2016-05-25T07:47:08.985Z,14.12
2016-05-25T07:48:08.879Z,14.17
2016-05-25T07:49:08.881Z,14.07
2016-05-25T07:50:08.885Z,14.18
2016-05-25T07:51:08.730Z,14.15
2016-05-25T07:52:08.905Z,14.17
2016-05-25T07:53:08.907Z,14.17
2016-05-25T07:54:08.738Z,14.23
2016-05-25T07:55:08.616Z,14.22
2016-05-25T07:56:08.901Z,14.37
2016-05-25T07:57:08.918Z,14.35
2016-05-25T07:58:13.092Z,14.51
2016-05-25T07:59:08.596Z,14.5
2016-05-25T08:00:08.895Z,14.53
2016-05-25T08:01:08.897Z,14.54
2016-05-25T08:02:08.759Z,14.54
2016-05-25T08:03:08.903Z,14.58
2016-05-25T08:04:08.765Z,14.66
2016-05-25T08:05:08.909Z,14.68
2016-05-25T08:06:08.911Z,14.62
2016-05-25T08:07:08.914Z,14.79
2016-05-25T08:08:08.917Z,14.88
2016-05-25T08:09:08.919Z,14.86
2016-05-25T08:10:08.906Z,14.86
2016-05-25T08:11:08.909Z,14.85
2016-05-25T08:12:08.912Z,14.89
2016-05-25T08:13:08.930Z,14.79
2016-05-25T08:14:08.932Z,14.88
2016-05-25T08:15:08.919Z,14.91
2016-05-25T08:16:08.922Z,14.94
2016-05-25T08:17:08.832Z,14.97
2016-05-25T08:18:08.928Z,15
2016-05-25T08:19:08.930Z,14.96
2016-05-25T08:20:08.933Z,14.91
2016-05-25T08:21:08.936Z,14.88
2016-05-25T08:22:08.954Z,15
2016-05-25T08:23:08.941Z,14.96
2016-05-25T08:24:08.944Z,14.97
2016-05-25T08:25:08.946Z,14.96
2016-05-25T08:26:08.949Z,14.82
2016-05-25T08:27:08.795Z,14.84
2016-05-25T08:28:08.954Z,14.82
2016-05-25T08:29:08.957Z,14.92
2016-05-25T08:30:08.960Z,14.96
2016-05-25T08:31:08.947Z,14.89
2016-05-25T08:32:08.840Z,14.86
2016-05-25T08:33:08.953Z,14.91
2016-05-25T08:34:08.987Z,14.85
2016-05-25T08:35:08.958Z,14.81
2016-05-25T08:36:08.961Z,14.85
2016-05-25T08:37:08.963Z,14.82
2016-05-25T08:38:08.826Z,14.86
2016-05-25T08:39:08.984Z,14.85
2016-05-25T08:40:08.987Z,14.94
2016-05-25T08:41:08.989Z,14.94
2016-05-25T08:42:08.992Z,15.02
2016-05-25T08:43:09.027Z,14.91
2016-05-25T08:44:08.997Z,14.97
2016-05-25T08:45:09.016Z,14.97
2016-05-25T08:46:09.003Z,15.07
2016-05-25T08:47:09.005Z,15.02
2016-05-25T08:48:08.993Z,15.1
2016-05-25T08:49:08.871Z,15.11
2016-05-25T08:50:08.998Z,15.35
2016-05-25T08:51:09.001Z,15.39
2016-05-25T08:52:09.004Z,15.39
2016-05-25T08:53:09.022Z,15.42
2016-05-25T08:54:08.853Z,15.46
2016-05-25T08:55:09.012Z,15.43
2016-05-25T08:56:09.030Z,15.39
2016-05-25T08:57:09.017Z,15.33
2016-05-25T08:58:09.035Z,15.42
2016-05-25T08:59:09.023Z,15.52
2016-05-25T09:00:09.026Z,15.61
2016-05-25T09:01:09.028Z,15.75
2016-05-25T09:02:09.765Z,15.61
2016-05-25T09:03:09.034Z,15.65
2016-05-25T09:04:09.051Z,15.61
2016-05-25T09:05:09.038Z,15.72
2016-05-25T09:06:09.042Z,15.76
2016-05-25T09:07:09.044Z,15.7
2016-05-25T09:08:09.047Z,15.8
2016-05-25T09:09:09.034Z,15.75
2016-05-25T09:10:08.896Z,15.75
2016-05-25T09:11:09.055Z,15.61
2016-05-25T09:12:09.042Z,15.62
2016-05-25T09:13:09.061Z,15.75
2016-05-25T09:14:09.063Z,15.72
2016-05-25T09:15:09.066Z,15.62
2016-05-25T09:16:09.053Z,15.65
2016-05-25T09:17:09.978Z,15.73
2016-05-25T09:18:09.073Z,15.75
2016-05-25T09:19:08.921Z,15.76
2016-05-25T09:20:09.079Z,15.77
2016-05-25T09:21:09.082Z,15.83
2016-05-25T09:22:09.085Z,15.88
2016-05-25T09:23:09.088Z,15.91
2016-05-25T09:24:09.090Z,16
2016-05-25T09:25:09.093Z,15.92
2016-05-25T09:26:09.095Z,15.95
2016-05-25T09:27:09.098Z,15.88
2016-05-25T09:28:09.115Z,15.8
2016-05-25T09:29:09.103Z,15.76
2016-05-25T09:30:09.106Z,15.79
2016-05-25T09:31:08.937Z,15.79
2016-05-25T09:32:09.315Z,15.8
2016-05-25T09:33:09.098Z,15.83
2016-05-25T09:34:08.789Z,15.91
2016-05-25T09:35:09.104Z,15.94
2016-05-25T09:36:09.122Z,15.86
2016-05-25T09:37:09.125Z,15.86
2016-05-25T09:38:09.111Z,15.86
2016-05-25T09:39:09.115Z,15.88
2016-05-25T09:40:09.133Z,15.88
2016-05-25T09:41:09.135Z,15.83
2016-05-25T09:42:09.154Z,15.75
2016-05-25T09:43:09.126Z,15.8
2016-05-25T09:44:09.128Z,15.83
2016-05-25T09:45:08.990Z,15.9
2016-05-25T09:46:09.149Z,15.83
2016-05-25T09:47:09.011Z,15.86
2016-05-25T09:48:09.155Z,15.86
2016-05-25T09:49:09.188Z,15.98
2016-05-25T09:50:09.160Z,16.04
2016-05-25T09:51:09.163Z,16.04
2016-05-25T09:52:09.180Z,16.08
2016-05-25T09:53:10.387Z,16.2
2016-05-25T09:54:09.171Z,16.23
2016-05-25T09:55:09.157Z,16.21
2016-05-25T09:56:09.176Z,16.15
2016-05-25T09:57:09.178Z,16.17
2016-05-25T09:58:09.166Z,16.23
2016-05-25T09:59:09.184Z,16.2
2016-05-25T10:00:09.186Z,16.23
2016-05-25T10:01:09.189Z,16.23
2016-05-25T10:02:09.489Z,16.49
2016-05-25T10:03:09.054Z,16.39
2016-05-25T10:04:09.181Z,16.58
2016-05-25T10:05:09.044Z,16.57
2016-05-25T10:06:09.218Z,16.54
2016-05-25T10:07:09.205Z,16.5
2016-05-25T10:08:09.208Z,16.46
2016-05-25T10:09:09.211Z,16.5
2016-05-25T10:10:09.214Z,16.38
2016-05-25T10:11:09.216Z,16.38
2016-05-25T10:12:09.219Z,16.32
2016-05-25T10:13:09.222Z,16.26
2016-05-25T10:14:09.224Z,16.23
2016-05-25T10:15:09.242Z,16.21
2016-05-25T10:16:09.230Z,16.28
2016-05-25T10:17:09.092Z,16.31
2016-05-25T10:18:09.080Z,16.36
2016-05-25T10:19:09.238Z,16.39
2016-05-25T10:20:09.115Z,16.38
2016-05-25T10:21:09.243Z,16.58
2016-05-25T10:22:09.261Z,16.66
2016-05-25T10:23:09.264Z,16.53
2016-05-25T10:24:09.266Z,16.64
2016-05-25T10:25:09.255Z,16.65
2016-05-25T10:26:09.272Z,16.61
2016-05-25T10:27:09.259Z,16.39
2016-05-25T10:28:09.278Z,16.31
2016-05-25T10:29:09.265Z,16.31
2016-05-25T10:30:09.282Z,16.41
2016-05-25T10:31:09.332Z,16.46
2016-05-25T10:32:09.288Z,16.58
2016-05-25T10:33:09.291Z,16.81
2016-05-25T10:34:09.293Z,16.87
2016-05-25T10:35:09.281Z,17.01
2016-05-25T10:36:09.143Z,17.14
2016-05-25T10:37:09.286Z,17.11
2016-05-25T10:38:09.164Z,16.99
2016-05-25T10:39:09.151Z,17.08
2016-05-25T10:40:09.325Z,17.16
2016-05-25T10:41:09.062Z,17.3
2016-05-25T10:42:09.003Z,17.42
2016-05-25T10:43:09.178Z,17.51
2016-05-25T10:44:09.180Z,17.6
2016-05-25T10:45:09.322Z,17.76
2016-05-25T10:46:09.325Z,18.03
2016-05-25T10:47:09.203Z,18.2
2016-05-25T10:48:09.331Z,18.1
2016-05-25T10:49:09.538Z,18.23
2016-05-25T10:50:09.352Z,18.33
2016-05-25T10:51:09.199Z,18.29
2016-05-25T10:52:09.358Z,18.41
2016-05-25T10:53:09.361Z,18.37
2016-05-25T10:54:09.363Z,18.49
2016-05-25T10:55:09.210Z,18.73
2016-05-25T10:56:09.369Z,18.95
2016-05-25T10:57:09.371Z,18.99
2016-05-25T10:58:09.374Z,18.99
2016-05-25T10:59:09.392Z,18.93
2016-05-25T11:00:09.395Z,18.88
2016-05-25T11:01:09.413Z,18.88
2016-05-25T11:02:12.525Z,18.83
2016-05-25T11:03:09.482Z,18.75
2016-05-25T11:04:09.406Z,18.66
2016-05-25T11:05:09.268Z,18.75
2016-05-25T11:06:09.427Z,18.83
2016-05-25T11:07:09.429Z,18.77
2016-05-25T11:08:09.432Z,18.83
2016-05-25T11:09:09.434Z,18.81
2016-05-25T11:10:09.437Z,18.86
2016-05-25T11:11:09.472Z,18.92
2016-05-25T11:12:09.584Z,18.84
2016-05-25T11:13:09.305Z,18.83
2016-05-25T11:14:09.463Z,18.83
2016-05-25T11:15:09.497Z,18.96
2016-05-25T11:16:09.469Z,18.95
2016-05-25T11:17:12.425Z,18.92
2016-05-25T11:18:09.194Z,18.98
2016-05-25T11:19:09.509Z,18.92
2016-05-25T11:20:09.496Z,18.92
2016-05-25T11:21:09.498Z,19.04
2016-05-25T11:22:11.830Z,18.99
2016-05-25T11:23:09.519Z,18.93
2016-05-25T11:24:09.538Z,19.04
2016-05-25T11:25:09.368Z,19.09
2016-05-25T11:26:09.528Z,19.02
2016-05-25T11:27:09.530Z,18.8
2016-05-25T11:28:09.407Z,18.77
2016-05-25T11:29:09.582Z,18.83
2016-05-25T11:30:09.569Z,19
2016-05-25T11:31:09.556Z,19.15
2016-05-25T11:32:12.309Z,19.21
2016-05-25T11:33:09.421Z,19.21
2016-05-25T11:34:09.596Z,19.27
2016-05-25T11:35:09.787Z,19.34
2016-05-25T11:36:09.585Z,19.39
2016-05-25T11:37:11.509Z,19.26
2016-05-25T11:38:09.607Z,19.22
2016-05-25T11:39:09.593Z,19.07
2016-05-25T11:40:09.596Z,18.66
2016-05-25T11:41:09.599Z,18.65
2016-05-25T11:42:09.461Z,18.41
2016-05-25T11:43:09.464Z,18.4
2016-05-25T11:44:09.481Z,18.53
2016-05-25T11:45:09.641Z,18.34
2016-05-25T11:46:09.644Z,18.34
2016-05-25T11:47:09.647Z,18.22
2016-05-25T11:48:09.525Z,18.2
2016-05-25T11:49:09.495Z,18.08
2016-05-25T11:50:09.655Z,18.18
2016-05-25T11:51:09.672Z,18.04
2016-05-25T11:52:09.660Z,18.05
2016-05-25T11:53:09.522Z,18.15
2016-05-25T11:54:09.680Z,18.13
2016-05-25T11:55:09.683Z,18.11
2016-05-25T11:56:09.686Z,18.1
2016-05-25T11:57:09.688Z,17.95
2016-05-25T11:58:09.707Z,17.94
2016-05-25T11:59:09.585Z,18
2016-05-25T12:00:09.744Z,17.8
2016-05-25T12:01:09.715Z,17.83
2016-05-25T12:02:10.921Z,17.64
2016-05-25T12:03:09.737Z,17.52
2016-05-25T12:04:09.740Z,17.46
2016-05-25T12:05:09.726Z,17.46
2016-05-25T12:06:09.431Z,17.7
2016-05-25T12:07:09.590Z,17.59
2016-05-25T12:08:09.593Z,17.63
2016-05-25T12:09:09.737Z,17.64
2016-05-25T12:10:09.740Z,17.72
2016-05-25T12:11:09.648Z,17.7
2016-05-25T12:12:09.619Z,17.71
2016-05-25T12:13:09.764Z,17.65
2016-05-25T12:14:09.609Z,17.74
2016-05-25T12:15:09.597Z,17.85
2016-05-25T12:16:09.755Z,17.86
2016-05-25T12:17:12.852Z,17.9
2016-05-25T12:18:10.323Z,17.83
2016-05-25T12:19:09.795Z,17.6
2016-05-25T12:20:09.783Z,17.48
2016-05-25T12:21:09.847Z,17.49
2016-05-25T12:22:13.178Z,17.64
2016-05-25T12:23:09.822Z,17.6
2016-05-25T12:24:09.824Z,17.68
2016-05-25T12:25:09.827Z,17.76
2016-05-25T12:26:09.641Z,17.83
2016-05-25T12:27:10.566Z,17.85
2016-05-25T12:28:09.804Z,17.71
2016-05-25T12:29:09.650Z,17.57
2016-05-25T12:30:09.824Z,17.68
2016-05-25T12:31:09.827Z,17.68
2016-05-25T12:32:09.829Z,17.65
2016-05-25T12:33:09.832Z,17.7
2016-05-25T12:34:09.835Z,17.79
2016-05-25T12:35:09.838Z,18.03
2016-05-25T12:36:09.668Z,18.04
2016-05-25T12:37:09.843Z,18.16
2016-05-25T12:38:09.846Z,18.18
2016-05-25T12:39:09.974Z,18.26
2016-05-25T12:40:10.320Z,18.4
2016-05-25T12:41:09.854Z,18.5
2016-05-25T12:42:09.794Z,18.49
2016-05-25T12:43:10.969Z,18.62
2016-05-25T12:44:09.612Z,18.71
2016-05-25T12:45:10.084Z,18.83
2016-05-25T12:46:10.133Z,18.98
2016-05-25T12:47:13.620Z,18.96
2016-05-25T12:48:10.295Z,19.08
2016-05-25T12:49:09.892Z,19.07
2016-05-25T12:50:10.035Z,19.12
2016-05-25T12:51:10.005Z,19.14
2016-05-25T12:52:10.664Z,19.26
2016-05-25T12:53:09.949Z,19.27
2016-05-25T12:54:09.983Z,19.34
2016-05-25T12:55:10.486Z,19.29